createdAt,value
2018-08-24T00:01:32.215Z,7.00
2018-08-24T00:04:04.818Z,7.27
2018-08-24T00:06:33.168Z,6.77
2018-08-24T00:09:01.539Z,6.37
2018-08-24T00:11:29.891Z,6.57
2018-08-24T00:13:58.705Z,6.60
2018-08-24T00:16:33.048Z,6.70
2018-08-24T00:19:01.398Z,6.93
2018-08-24T00:21:29.715Z,6.93
2018-08-24T00:23:58.064Z,7.03
2018-08-24T00:26:26.380Z,6.30
2018-08-24T00:28:55.815Z,7.17
2018-08-24T00:31:24.740Z,6.70
2018-08-24T00:33:53.339Z,7.00
2018-08-24T00:36:23.342Z,6.80
2018-08-24T00:38:51.720Z,6.70
2018-08-24T00:41:20.112Z,7.00
2018-08-24T00:43:48.596Z,7.13
2018-08-24T00:46:16.948Z,7.00
2018-08-24T00:48:45.763Z,7.17
2018-08-24T00:51:14.082Z,6.63
2018-08-24T00:53:42.408Z,7.57
2018-08-24T00:56:11.735Z,6.87
2018-08-24T00:58:40.399Z,6.90
2018-08-24T01:01:09.309Z,7.07
2018-08-24T01:03:38.084Z,7.10
2018-08-24T01:06:07.049Z,6.93
2018-08-24T01:08:35.789Z,7.20
2018-08-24T01:11:04.342Z,7.13
2018-08-24T01:13:32.820Z,7.30
2018-08-24T01:16:02.256Z,7.07
2018-08-24T01:18:36.025Z,7.47
2018-08-24T01:21:04.613Z,6.87
2018-08-24T01:23:34.643Z,7.70
2018-08-24T01:26:03.303Z,7.17
2018-08-24T01:28:32.610Z,7.23
2018-08-24T01:31:04.242Z,7.37
2018-08-24T01:33:32.966Z,7.80
2018-08-24T01:36:01.298Z,7.67
2018-08-24T01:38:29.640Z,9.07
2018-08-24T01:40:58.907Z,12.73
2018-08-24T01:43:27.225Z,12.77
2018-08-24T01:46:01.882Z,17.17
2018-08-24T01:48:30.229Z,18.67
2018-08-24T01:50:59.564Z,24.27
2018-08-24T01:53:27.922Z,22.00
2018-08-24T01:55:56.556Z,20.17
2018-08-24T01:58:24.983Z,18.33
2018-08-24T02:00:53.342Z,20.23
2018-08-24T02:03:22.303Z,22.27
2018-08-24T02:05:50.624Z,23.40
2018-08-24T02:08:18.992Z,43.87
2018-08-24T02:10:47.336Z,40.40
2018-08-24T02:13:21.150Z,46.93
2018-08-24T02:15:49.499Z,45.30
2018-08-24T02:19:27.008Z,66.07
2018-08-24T02:22:00.948Z,58.23
2018-08-24T02:24:29.283Z,60.63
2018-08-24T02:26:57.636Z,64.57
2018-08-24T02:29:25.977Z,60.97
2018-08-24T02:31:54.592Z,55.77
2018-08-24T02:34:22.933Z,54.70
2018-08-24T02:36:51.347Z,53.57
2018-08-24T02:39:20.513Z,50.80
2018-08-24T02:41:48.909Z,54.90
2018-08-24T02:44:17.338Z,52.77
2018-08-24T02:46:45.687Z,53.33
2018-08-24T02:49:14.039Z,52.00
2018-08-24T02:51:43.400Z,46.77
2018-08-24T02:54:12.626Z,45.10
2018-08-24T02:56:41.413Z,40.57
2018-08-24T02:59:09.732Z,40.13
2018-08-24T03:01:38.115Z,39.10
2018-08-24T03:04:06.672Z,38.43
2018-08-24T03:06:35.009Z,38.57
2018-08-24T03:09:03.440Z,39.40
2018-08-24T03:11:31.832Z,40.00
2018-08-24T03:14:00.185Z,39.77
2018-08-24T03:16:28.706Z,37.53
2018-08-24T03:18:56.979Z,38.57
2018-08-24T03:21:25.339Z,39.40
2018-08-24T03:23:53.691Z,38.73
2018-08-24T03:26:22.041Z,37.47
2018-08-24T03:28:50.789Z,37.87
2018-08-24T03:31:19.133Z,37.30
2018-08-24T03:33:47.482Z,36.63
2018-08-24T03:36:15.820Z,37.00
2018-08-24T03:38:44.169Z,34.07
2018-08-24T03:41:12.483Z,34.67
2018-08-24T03:43:40.899Z,35.10
2018-08-24T03:46:09.243Z,34.17
2018-08-24T03:48:37.601Z,33.70
2018-08-24T03:51:05.960Z,33.20
2018-08-24T03:53:34.308Z,31.97
2018-08-24T03:56:02.648Z,29.67
2018-08-24T03:58:30.998Z,30.13
2018-08-24T04:00:59.812Z,27.33
2018-08-24T04:03:29.216Z,28.87
2018-08-24T04:05:57.579Z,28.97
2018-08-24T04:08:26.063Z,28.30
2018-08-24T04:10:54.936Z,26.60
2018-08-24T04:13:23.286Z,28.50
2018-08-24T04:15:51.624Z,28.73
2018-08-24T04:18:19.945Z,28.33
2018-08-24T04:20:48.319Z,29.13
2018-08-24T04:23:16.673Z,28.83
2018-08-24T04:25:45.056Z,29.30
2018-08-24T04:28:13.402Z,28.17
2018-08-24T04:30:41.779Z,26.83
2018-08-24T04:33:10.175Z,24.40
2018-08-24T04:35:38.567Z,22.80
2018-08-24T04:38:06.929Z,20.93
2018-08-24T04:40:35.316Z,21.27
2018-08-24T04:43:03.735Z,20.83
2018-08-24T04:45:32.143Z,19.73
2018-08-24T04:48:00.494Z,18.50
2018-08-24T04:50:29.283Z,18.13
2018-08-24T04:52:57.661Z,18.60
2018-08-24T04:55:26.007Z,17.93
2018-08-24T04:57:54.352Z,17.93
2018-08-24T05:00:23.277Z,17.67
2018-08-24T05:02:51.657Z,18.50
2018-08-24T05:05:19.993Z,18.43
2018-08-24T05:07:48.349Z,17.50
2018-08-24T05:10:16.725Z,18.87
2018-08-24T05:12:45.088Z,19.67
2018-08-24T05:15:13.464Z,19.50
2018-08-24T05:17:41.891Z,19.47
2018-08-24T05:20:10.241Z,19.93
2018-08-24T05:22:38.621Z,19.37
2018-08-24T05:25:07.230Z,19.07
2018-08-24T05:27:35.612Z,19.93
2018-08-24T05:30:03.957Z,18.50
2018-08-24T05:32:32.339Z,20.93
2018-08-24T05:35:00.746Z,19.77
2018-08-24T05:37:29.096Z,20.03
2018-08-24T05:39:57.475Z,20.70
2018-08-24T05:42:25.825Z,20.07
2018-08-24T05:44:54.195Z,20.43
2018-08-24T05:47:22.566Z,21.50
2018-08-24T05:49:50.919Z,20.13
2018-08-24T05:52:19.406Z,20.47
2018-08-24T05:54:47.780Z,20.60
2018-08-24T05:57:16.108Z,20.97
2018-08-24T05:59:44.537Z,20.83
2018-08-24T06:02:12.892Z,19.53
2018-08-24T06:04:41.259Z,21.13
2018-08-24T06:07:09.651Z,21.50
2018-08-24T06:09:37.995Z,19.77
2018-08-24T06:12:06.408Z,19.47
2018-08-24T06:14:34.819Z,20.43
2018-08-24T06:17:08.591Z,19.53
2018-08-24T06:19:37.484Z,18.97
2018-08-24T06:22:05.960Z,19.27
2018-08-24T06:24:35.911Z,19.33
2018-08-24T06:27:04.222Z,19.00
2018-08-24T06:29:32.573Z,19.00
2018-08-24T06:32:01.119Z,17.93
2018-08-24T06:34:30.833Z,18.00
2018-08-24T06:36:59.212Z,17.53
2018-08-24T06:39:27.554Z,17.90
2018-08-24T06:41:56.179Z,17.53
2018-08-24T06:44:24.602Z,16.17
2018-08-24T06:46:53.031Z,16.87
2018-08-24T06:49:22.361Z,15.10
2018-08-24T06:51:50.759Z,14.97
2018-08-24T06:54:19.118Z,14.83
2018-08-24T06:56:47.469Z,13.00
2018-08-24T06:59:15.849Z,13.77
2018-08-24T07:01:44.190Z,13.70
2018-08-24T07:04:12.572Z,14.57
2018-08-24T07:06:41.048Z,14.73
2018-08-24T07:09:09.877Z,13.67
2018-08-24T07:11:38.280Z,14.57
2018-08-24T07:14:06.614Z,13.83
2018-08-24T07:16:34.944Z,14.93
2018-08-24T07:19:03.289Z,12.83
2018-08-24T07:21:31.670Z,11.90
2018-08-24T07:24:00.024Z,10.87
2018-08-24T07:26:28.433Z,10.17
2018-08-24T07:28:56.787Z,9.67
2018-08-24T07:31:25.158Z,8.90
2018-08-24T07:33:53.545Z,8.97
2018-08-24T07:36:21.924Z,9.10
2018-08-24T07:38:50.341Z,8.20
2018-08-24T07:41:18.822Z,6.90
2018-08-24T07:43:47.257Z,7.60
2018-08-24T07:46:15.684Z,7.17
2018-08-24T07:48:44.040Z,7.37
2018-08-24T07:51:12.367Z,7.50
2018-08-24T07:53:40.750Z,7.17
2018-08-24T07:56:09.097Z,7.53
2018-08-24T07:58:37.428Z,7.30
2018-08-24T08:01:05.956Z,7.50
2018-08-24T08:03:34.336Z,7.67
2018-08-24T08:06:02.684Z,7.57
2018-08-24T08:08:31.024Z,7.90
2018-08-24T08:10:59.559Z,7.40
2018-08-24T08:13:27.907Z,7.93
2018-08-24T08:15:56.303Z,8.30
2018-08-24T08:18:24.697Z,8.60
2018-08-24T08:20:53.118Z,9.60
2018-08-24T08:23:21.454Z,9.77
2018-08-24T08:25:49.801Z,9.67
2018-08-24T08:28:18.180Z,11.07
2018-08-24T08:30:46.560Z,10.10
2018-08-24T08:33:14.910Z,10.77
2018-08-24T08:35:43.259Z,11.87
2018-08-24T08:38:11.627Z,9.27
2018-08-24T08:40:39.975Z,9.97
2018-08-24T08:43:08.331Z,10.67
2018-08-24T08:45:36.704Z,10.77
2018-08-24T08:48:05.042Z,9.90
2018-08-24T08:50:33.386Z,9.50
2018-08-24T08:53:01.732Z,8.97
2018-08-24T08:55:30.091Z,9.70
2018-08-24T08:57:58.432Z,8.67
2018-08-24T09:00:26.794Z,8.60
2018-08-24T09:02:55.176Z,7.70
2018-08-24T09:05:23.561Z,6.90
2018-08-24T09:07:51.911Z,5.57
2018-08-24T09:10:20.259Z,5.10
2018-08-24T09:12:48.655Z,5.07
2018-08-24T09:15:17.076Z,4.70
2018-08-24T09:17:50.829Z,4.83
2018-08-24T09:20:24.559Z,5.20
2018-08-24T09:22:58.240Z,5.10
2018-08-24T09:25:32.011Z,4.80
2018-08-24T09:28:05.739Z,4.70
2018-08-24T09:30:39.316Z,4.53
2018-08-24T09:33:07.729Z,4.17
2018-08-24T09:35:36.061Z,4.47
2018-08-24T09:38:04.736Z,3.83
2018-08-24T09:40:38.519Z,3.57
2018-08-24T09:43:12.359Z,3.63
2018-08-24T09:45:40.604Z,3.27
2018-08-24T09:48:14.315Z,3.27
2018-08-24T09:50:47.978Z,4.07
2018-08-24T09:53:21.721Z,3.93
2018-08-24T09:55:50.063Z,4.43
2018-08-24T09:58:18.409Z,4.03
2018-08-24T10:00:52.177Z,4.70
2018-08-24T10:04:24.657Z,4.63
2018-08-24T10:06:58.365Z,5.70
2018-08-24T10:09:26.726Z,5.50
2018-08-24T10:11:55.053Z,9.43
2018-08-24T10:14:23.428Z,5.40
2018-08-24T10:16:51.757Z,8.40
2018-08-24T10:19:20.086Z,5.80
2018-08-24T10:21:48.435Z,5.30
2018-08-24T10:24:16.783Z,4.90
2018-08-24T10:26:45.190Z,5.03
2018-08-24T10:29:13.550Z,4.73
2018-08-24T10:31:41.872Z,4.50
2018-08-24T10:34:10.184Z,4.27
2018-08-24T10:36:38.586Z,5.90
2018-08-24T10:39:08.540Z,5.47
2018-08-24T10:41:36.873Z,4.53
2018-08-24T10:44:05.206Z,4.77
2018-08-24T10:46:33.556Z,4.40
2018-08-24T10:49:01.882Z,3.83
2018-08-24T10:51:30.205Z,3.60
2018-08-24T10:53:58.524Z,5.67
2018-08-24T10:56:26.864Z,6.67
2018-08-24T10:58:55.212Z,3.40
2018-08-24T11:01:23.625Z,3.70
2018-08-24T11:03:51.932Z,3.73
2018-08-24T11:06:20.322Z,4.20
2018-08-24T11:08:48.655Z,4.90
2018-08-24T11:11:16.979Z,4.40
2018-08-24T11:13:45.346Z,4.00
2018-08-24T11:16:13.844Z,2.90
2018-08-24T11:18:42.154Z,2.97
2018-08-24T11:21:10.481Z,2.87
2018-08-24T11:23:38.949Z,2.80
2018-08-24T11:26:07.277Z,3.17
2018-08-24T11:28:35.625Z,3.50
2018-08-24T11:31:03.963Z,5.83
2018-08-24T11:33:32.316Z,5.57
2018-08-24T11:36:00.757Z,4.17
2018-08-24T11:38:29.005Z,3.80
2018-08-24T11:40:57.510Z,4.03
2018-08-24T11:43:25.864Z,4.50
2018-08-24T11:45:54.196Z,4.10
2018-08-24T11:48:22.521Z,4.50
2018-08-24T11:50:50.865Z,4.70
2018-08-24T11:53:19.209Z,5.00
2018-08-24T11:55:47.555Z,4.67
2018-08-24T11:58:15.904Z,4.23
2018-08-24T12:00:44.282Z,4.67
2018-08-24T12:03:12.619Z,4.50
2018-08-24T12:05:40.969Z,4.83
2018-08-24T12:08:09.513Z,4.67
2018-08-24T12:10:37.693Z,6.40
2018-08-24T12:13:06.043Z,7.17
2018-08-24T12:15:34.385Z,5.70
2018-08-24T12:18:03.097Z,4.77
2018-08-24T12:20:31.417Z,4.60
2018-08-24T12:22:59.796Z,5.20
2018-08-24T12:25:28.131Z,5.77
2018-08-24T12:27:56.522Z,5.90
2018-08-24T12:30:24.864Z,5.37
2018-08-24T12:32:53.209Z,5.50
2018-08-24T12:35:21.548Z,5.10
2018-08-24T12:37:49.903Z,5.47
2018-08-24T12:40:18.245Z,5.70
2018-08-24T12:42:46.630Z,6.10
2018-08-24T12:45:15.012Z,10.80
2018-08-24T12:47:43.345Z,7.63
2018-08-24T12:50:11.760Z,8.23
2018-08-24T12:52:40.141Z,7.00
2018-08-24T12:55:08.580Z,6.23
2018-08-24T12:57:36.944Z,6.57
2018-08-24T13:00:05.757Z,7.57
2018-08-24T13:02:34.055Z,7.07
2018-08-24T13:05:02.387Z,5.93
2018-08-24T13:07:30.755Z,5.73
2018-08-24T13:09:59.099Z,6.63
2018-08-24T13:12:27.437Z,5.70
2018-08-24T13:14:55.787Z,6.00
2018-08-24T13:17:24.129Z,6.33
2018-08-24T13:19:52.450Z,6.03
2018-08-24T13:22:20.783Z,6.23
2018-08-24T13:24:49.097Z,6.07
2018-08-24T13:27:17.460Z,5.83
2018-08-24T13:29:45.786Z,6.13
2018-08-24T13:32:14.121Z,6.20
2018-08-24T13:34:43.458Z,6.20
2018-08-24T13:37:11.977Z,5.80
2018-08-24T13:39:40.356Z,6.20
2018-08-24T13:42:08.692Z,6.20
2018-08-24T13:44:37.452Z,6.50
2018-08-24T13:47:05.860Z,6.07
2018-08-24T13:49:34.327Z,6.63
2018-08-24T13:52:02.659Z,6.20
2018-08-24T13:54:31.018Z,6.70
2018-08-24T13:56:59.357Z,6.30
2018-08-24T13:59:27.822Z,5.90
2018-08-24T14:01:56.500Z,6.53
2018-08-24T14:04:24.909Z,6.00
2018-08-24T14:06:53.272Z,8.97
2018-08-24T14:09:21.932Z,8.53
2018-08-24T14:11:50.336Z,6.27
2018-08-24T14:14:19.226Z,6.60
2018-08-24T14:16:47.607Z,7.00
2018-08-24T14:19:15.987Z,12.33
2018-08-24T14:21:44.353Z,8.30
2018-08-24T14:24:12.735Z,9.87
2018-08-24T14:26:41.158Z,8.20
2018-08-24T14:29:09.661Z,6.90
2018-08-24T14:31:38.217Z,6.73
2018-08-24T14:34:06.538Z,6.77
2018-08-24T14:36:35.002Z,6.90
2018-08-24T14:39:03.394Z,6.63
2018-08-24T14:41:31.776Z,7.73
2018-08-24T14:44:00.201Z,8.60
2018-08-24T14:46:28.577Z,12.17
2018-08-24T14:48:56.947Z,6.60
2018-08-24T14:51:25.328Z,7.47
2018-08-24T14:53:53.763Z,7.83
2018-08-24T14:56:22.160Z,6.90
2018-08-24T14:58:50.462Z,8.30
2018-08-24T15:01:18.821Z,6.77
2018-08-24T15:03:47.174Z,6.57
2018-08-24T15:06:15.497Z,6.93
2018-08-24T15:08:44.742Z,8.60
2018-08-24T15:11:13.075Z,7.03
2018-08-24T15:13:41.452Z,6.90
2018-08-24T15:16:09.815Z,6.43
2018-08-24T15:18:38.209Z,7.77
2018-08-24T15:21:06.633Z,10.40
2018-08-24T15:23:34.971Z,7.03
2018-08-24T15:26:03.299Z,6.80
2018-08-24T15:28:31.664Z,6.20
2018-08-24T15:31:00.747Z,7.17
2018-08-24T15:33:29.344Z,8.73
2018-08-24T15:35:58.148Z,8.03
2018-08-24T15:38:26.523Z,6.90
2018-08-24T15:40:54.845Z,5.73
2018-08-24T15:43:23.174Z,6.43
2018-08-24T15:45:51.506Z,11.00
2018-08-24T15:48:19.836Z,6.43
2018-08-24T15:50:48.180Z,8.10
2018-08-24T15:53:16.529Z,8.07
2018-08-24T15:55:44.923Z,6.50
2018-08-24T15:58:13.441Z,9.40
2018-08-24T16:00:42.479Z,9.00
2018-08-24T16:03:10.878Z,6.17
2018-08-24T16:05:39.291Z,6.10
2018-08-24T16:08:07.680Z,6.23
2018-08-24T16:10:36.321Z,6.23
2018-08-24T16:13:04.713Z,6.67
2018-08-24T16:15:33.083Z,5.87
2018-08-24T16:18:06.788Z,6.10
2018-08-24T16:20:35.143Z,5.93
2018-08-24T16:23:03.492Z,5.60
2018-08-24T16:25:31.929Z,6.17
2018-08-24T16:28:00.268Z,6.30
2018-08-24T16:30:28.676Z,6.60
2018-08-24T16:32:57.057Z,6.73
2018-08-24T16:35:25.612Z,6.60
2018-08-24T16:37:54.041Z,6.17
2018-08-24T16:40:22.383Z,6.70
2018-08-24T16:42:50.747Z,5.97
2018-08-24T16:45:19.887Z,5.73
2018-08-24T16:47:48.322Z,6.37
2018-08-24T16:50:16.747Z,5.90
2018-08-24T16:52:45.089Z,6.17
2018-08-24T16:55:13.797Z,6.10
2018-08-24T16:57:42.257Z,5.63
2018-08-24T17:00:10.605Z,5.47
2018-08-24T17:02:39.058Z,5.67
2018-08-24T17:05:07.690Z,5.97
2018-08-24T17:07:36.304Z,6.10
2018-08-24T17:10:05.070Z,5.57
2018-08-24T17:12:33.447Z,6.00
2018-08-24T17:15:01.974Z,5.17
2018-08-24T17:17:30.461Z,5.07
2018-08-24T17:19:58.872Z,4.87
2018-08-24T17:22:27.300Z,6.27
2018-08-24T17:24:55.648Z,9.20
2018-08-24T17:27:24.104Z,4.57
2018-08-24T17:29:52.993Z,8.17
2018-08-24T17:32:21.467Z,4.63
2018-08-24T17:34:50.050Z,4.37
2018-08-24T17:37:18.860Z,6.90
2018-08-24T17:39:47.358Z,9.57
2018-08-24T17:42:15.737Z,5.57
2018-08-24T17:44:44.083Z,6.30
2018-08-24T17:47:12.667Z,7.67
2018-08-24T17:49:41.307Z,10.50
2018-08-24T17:52:09.683Z,9.47
2018-08-24T17:54:38.260Z,8.93
2018-08-24T17:57:06.855Z,10.40
2018-08-24T17:59:35.175Z,7.93
2018-08-24T18:02:03.552Z,5.97
2018-08-24T18:04:32.052Z,5.53
2018-08-24T18:07:00.493Z,5.57
2018-08-24T18:09:28.860Z,9.37
2018-08-24T18:11:57.232Z,6.33
2018-08-24T18:14:25.600Z,6.33
2018-08-24T18:16:54.014Z,4.30
2018-08-24T18:19:22.470Z,4.70
2018-08-24T18:21:50.832Z,4.17
2018-08-24T18:24:19.200Z,10.37
2018-08-24T18:26:47.583Z,11.77
2018-08-24T18:29:15.933Z,8.50
2018-08-24T18:31:44.427Z,5.33
2018-08-24T18:34:12.776Z,4.07
2018-08-24T18:36:41.202Z,4.83
2018-08-24T18:39:11.495Z,3.80
2018-08-24T18:41:39.854Z,3.70
2018-08-24T18:44:08.572Z,3.70
2018-08-24T18:46:36.923Z,3.83
2018-08-24T18:49:05.397Z,3.57
2018-08-24T18:51:33.810Z,2.90
2018-08-24T18:54:02.360Z,3.40
2018-08-24T18:56:30.747Z,3.83
2018-08-24T18:58:59.123Z,3.20
2018-08-24T19:01:27.498Z,3.13
2018-08-24T19:03:55.854Z,3.63
2018-08-24T19:06:24.305Z,3.60
2018-08-24T19:08:52.689Z,3.70
2018-08-24T19:12:26.194Z,9.57
2018-08-24T19:14:55.597Z,4.40
2018-08-24T19:17:29.474Z,3.60
2018-08-24T19:20:03.208Z,3.90
2018-08-24T19:22:31.590Z,5.67
2018-08-24T19:25:00.026Z,7.83
2018-08-24T19:27:33.825Z,7.70
2018-08-24T19:30:07.532Z,3.97
2018-08-24T19:32:35.990Z,3.67
2018-08-24T19:35:04.480Z,5.50
2018-08-24T19:37:32.866Z,8.13
2018-08-24T19:40:06.990Z,3.73
2018-08-24T19:42:35.369Z,3.47
2018-08-24T19:45:03.716Z,5.03
2018-08-24T19:47:37.436Z,5.87
2018-08-24T19:50:06.210Z,11.60
2018-08-24T19:52:35.126Z,8.20
2018-08-24T19:55:03.545Z,4.53
2018-08-24T19:57:37.215Z,5.83
2018-08-24T20:00:05.593Z,4.93
2018-08-24T20:02:33.974Z,4.43
2018-08-24T20:05:03.110Z,3.63
2018-08-24T20:07:36.758Z,3.67
2018-08-24T20:10:07.450Z,14.60
2018-08-24T20:12:35.830Z,11.30
2018-08-24T20:15:09.694Z,5.43
2018-08-24T20:17:38.072Z,4.20
2018-08-24T20:20:07.170Z,4.60
2018-08-24T20:22:35.658Z,3.97
2018-08-24T20:25:04.541Z,4.23
2018-08-24T20:27:32.924Z,4.13
2018-08-24T20:30:01.294Z,7.00
2018-08-24T20:32:29.652Z,10.23
2018-08-24T20:34:57.995Z,5.93
2018-08-24T20:37:26.350Z,4.73
2018-08-24T20:39:54.777Z,5.00
2018-08-24T20:42:23.105Z,4.47
2018-08-24T20:44:51.503Z,3.37
2018-08-24T20:47:19.881Z,4.03
2018-08-24T20:49:48.196Z,3.70
2018-08-24T20:52:16.754Z,3.70
2018-08-24T20:54:45.163Z,3.90
2018-08-24T20:57:13.514Z,3.70
2018-08-24T20:59:41.865Z,3.37
2018-08-24T21:02:10.576Z,3.77
2018-08-24T21:04:38.926Z,3.70
2018-08-24T21:07:07.435Z,3.47
2018-08-24T21:09:35.774Z,3.33
2018-08-24T21:12:04.153Z,3.03
2018-08-24T21:14:32.566Z,2.83
2018-08-24T21:17:00.881Z,3.13
2018-08-24T21:19:29.280Z,3.47
2018-08-24T21:21:57.679Z,3.10
2018-08-24T21:24:26.403Z,2.97
2018-08-24T21:26:54.735Z,2.67
2018-08-24T21:29:24.084Z,3.03
2018-08-24T21:31:52.481Z,2.70
2018-08-24T21:34:21.347Z,2.53
2018-08-24T21:36:49.687Z,2.80
2018-08-24T21:39:18.034Z,2.67
2018-08-24T21:41:46.383Z,3.07
2018-08-24T21:44:14.739Z,2.97
2018-08-24T21:46:43.101Z,2.87
2018-08-24T21:49:11.405Z,2.37
2018-08-24T21:51:39.764Z,2.60
2018-08-24T21:54:08.224Z,2.73
2018-08-24T21:56:36.545Z,2.60
2018-08-24T21:59:04.904Z,8.63
2018-08-24T22:01:33.281Z,8.83
2018-08-24T22:04:01.654Z,3.20
2018-08-24T22:06:29.995Z,2.63
2018-08-24T22:08:58.336Z,2.93
2018-08-24T22:11:26.688Z,2.60
2018-08-24T22:13:55.012Z,2.50
2018-08-24T22:16:23.342Z,2.73
2018-08-24T22:18:51.648Z,2.20
2018-08-24T22:21:20.037Z,2.37
2018-08-24T22:23:48.384Z,2.40
2018-08-24T22:26:16.784Z,2.50
2018-08-24T22:28:45.108Z,2.50
2018-08-24T22:31:13.449Z,2.40
2018-08-24T22:33:41.778Z,2.70
2018-08-24T22:36:10.097Z,2.27
2018-08-24T22:38:38.448Z,3.03
2018-08-24T22:41:07.003Z,2.40
2018-08-24T22:43:36.052Z,2.20
2018-08-24T22:46:04.943Z,2.13
2018-08-24T22:48:33.948Z,2.17
2018-08-24T22:51:02.494Z,2.50
2018-08-24T22:53:30.845Z,2.30
2018-08-24T22:55:59.415Z,2.23
2018-08-24T22:58:28.077Z,2.27
2018-08-24T23:00:56.718Z,2.30
2018-08-24T23:03:25.106Z,2.20
2018-08-24T23:05:53.446Z,2.30
2018-08-24T23:08:21.879Z,2.47
2018-08-24T23:10:50.267Z,2.10
2018-08-24T23:13:18.604Z,2.37
2018-08-24T23:15:46.952Z,2.37
2018-08-24T23:18:15.302Z,2.00
2018-08-24T23:20:43.664Z,2.23
2018-08-24T23:23:12.048Z,2.13
2018-08-24T23:25:40.411Z,2.17
2018-08-24T23:28:08.797Z,2.57
2018-08-24T23:30:37.140Z,2.37
2018-08-24T23:33:05.536Z,1.90
2018-08-24T23:35:33.869Z,2.17
2018-08-24T23:38:02.332Z,2.03
2018-08-24T23:40:30.677Z,2.90
2018-08-24T23:42:59.040Z,2.27
2018-08-24T23:45:27.386Z,2.33
2018-08-24T23:47:55.732Z,2.27
2018-08-24T23:50:24.072Z,1.97
2018-08-24T23:52:52.450Z,2.17
2018-08-24T23:55:20.784Z,2.30
2018-08-24T23:57:49.164Z,2.40
